Time;durP1;ratioP1;P1;durP2;ratioP2;P2;SDS_P1;SDS_P2;PMS_P1;PMS_P2;Temp;Humidity;BMP_temperature;BMP_pressure;BME280_temperature;BME280_humidity;BME280_pressure;Samples;Min_cycle;Max_cycle;Signal;HPM_P1;HPM_P2
2023/07/30 00:02:04;;;;;;;7.83;3.50;;;17.50;16.20;;;;;;5056453;28;20724;-85
2023/07/30 00:04:31;;;;;;;9.50;3.67;;;17.50;17.20;;;;;;5056887;28;20644;-87
2023/07/30 00:06:57;;;;;;;8.57;3.33;;;17.40;19.90;;;;;;5055705;28;20176;-87
2023/07/30 00:09:23;;;;;;;10.57;3.97;;;17.50;22.00;;;;;;5089333;28;20182;-87
2023/07/30 00:11:49;;;;;;;10.63;4.03;;;17.40;26.40;;;;;;5056781;28;20294;-91
2023/07/30 00:14:14;;;;;;;9.93;4.20;;;17.40;30.00;;;;;;5055334;28;20168;-86
2023/07/30 00:16:40;;;;;;;7.50;3.83;;;17.30;34.30;;;;;;5054987;28;20189;-85
2023/07/30 00:19:06;;;;;;;9.63;3.90;;;17.40;34.20;;;;;;5055383;28;20533;-85
2023/07/30 00:21:31;;;;;;;7.93;3.67;;;17.40;34.50;;;;;;5072726;28;20179;-85
2023/07/30 00:23:58;;;;;;;8.83;3.90;;;17.60;27.90;;;;;;5053507;28;20200;-84
2023/07/30 00:26:26;;;;;;;6.90;3.40;;;17.50;27.50;;;;;;5055182;28;20174;-85
2023/07/30 00:28:51;;;;;;;8.43;3.50;;;17.40;35.90;;;;;;5055806;28;20213;-84
2023/07/30 00:31:17;;;;;;;10.53;3.90;;;17.30;37.80;;;;;;5056679;28;20229;-85
2023/07/30 00:33:43;;;;;;;11.43;3.60;;;17.40;33.30;;;;;;5054574;28;20182;-84
2023/07/30 00:36:08;;;;;;;11.63;3.70;;;17.40;28.90;;;;;;5072743;28;20560;-86
2023/07/30 00:38:34;;;;;;;10.47;3.87;;;17.30;29.60;;;;;;5055084;28;20715;-85
2023/07/30 00:40:59;;;;;;;10.80;3.60;;;17.30;32.30;;;;;;5054560;28;20172;-85
2023/07/30 00:43:25;;;;;;;10.57;3.70;;;17.40;26.40;;;;;;5054660;28;20211;-87
2023/07/30 00:45:51;;;;;;;11.00;3.83;;;17.40;26.00;;;;;;5072410;28;20245;-84
2023/07/30 00:48:16;;;;;;;12.97;3.77;;;17.40;25.90;;;;;;5054527;28;20177;-85
2023/07/30 00:50:42;;;;;;;9.93;3.33;;;17.40;25.20;;;;;;5055165;28;20657;-85
2023/07/30 00:53:11;;;;;;;10.27;3.70;;;17.30;28.30;;;;;;5054496;28;20325;-85
2023/07/30 00:55:37;;;;;;;11.67;4.00;;;17.30;31.60;;;;;;5060354;28;20164;-84
2023/07/30 00:58:04;;;;;;;12.27;3.90;;;17.30;30.50;;;;;;5112072;28;20187;-84
2023/07/30 01:00:31;;;;;;;12.30;4.13;;;17.30;35.90;;;;;;5075505;28;20168;-83
2023/07/30 01:02:57;;;;;;;10.93;3.80;;;17.40;32.80;;;;;;5058452;28;20414;-85
2023/07/30 01:05:24;;;;;;;11.07;4.10;;;17.20;39.50;;;;;;5054876;28;20168;-84
2023/07/30 01:07:49;;;;;;;12.30;3.90;;;17.20;42.10;;;;;;5073010;28;20165;-85
2023/07/30 01:10:15;;;;;;;11.17;4.10;;;17.30;44.20;;;;;;5054202;28;20255;-85
2023/07/30 01:12:43;;;;;;;7.93;3.30;;;17.30;41.90;;;;;;5054101;28;20241;-84
2023/07/30 01:15:09;;;;;;;13.70;3.80;;;17.30;43.60;;;;;;5052506;28;20703;-84
2023/07/30 01:17:36;;;;;;;11.40;3.70;;;17.40;42.40;;;;;;5052740;28;20178;-85
2023/07/30 01:20:02;;;;;;;11.53;3.73;;;17.40;40.70;;;;;;5052484;28;20180;-84
2023/07/30 01:22:27;;;;;;;11.43;3.83;;;17.20;44.30;;;;;;5052530;28;20292;-85
2023/07/30 01:24:53;;;;;;;9.10;3.20;;;17.30;44.70;;;;;;5070674;28;20293;-84
2023/07/30 01:27:33;;;;;;;12.87;3.77;;;17.30;43.20;;;;;;5087988;28;20185;-85
2023/07/30 01:30:25;;;;;;;11.27;3.67;;;17.30;47.10;;;;;;5053595;28;20221;-85
2023/07/30 01:32:52;;;;;;;14.03;3.87;;;17.30;46.70;;;;;;5053339;28;20245;-85
2023/07/30 01:35:22;;;;;;;11.50;3.10;;;17.30;47.00;;;;;;5053394;28;20231;-85
2023/07/30 01:37:49;;;;;;;14.73;3.13;;;17.40;43.30;;;;;;5054147;28;20558;-86
2023/07/30 01:40:15;;;;;;;12.40;3.70;;;17.40;45.70;;;;;;5056305;28;20169;-85
2023/07/30 01:42:41;;;;;;;8.80;3.10;;;17.40;44.20;;;;;;5057020;28;20204;-85
2023/07/30 01:45:07;;;;;;;10.50;3.80;;;17.50;39.50;;;;;;5058208;28;20207;-88
2023/07/30 01:47:33;;;;;;;10.13;3.57;;;17.50;40.40;;;;;;5058586;28;20257;-85
2023/07/30 01:49:59;;;;;;;12.87;3.70;;;17.40;48.40;;;;;;5057671;28;20195;-88
2023/07/30 01:52:25;;;;;;;8.80;3.50;;;17.30;52.40;;;;;;5058171;28;20534;-85
2023/07/30 01:55:09;;;;;;;11.20;3.67;;;17.30;53.70;;;;;;5058306;28;20711;-89
2023/07/30 01:57:35;;;;;;;12.53;3.50;;;17.40;52.30;;;;;;5056941;28;20206;-87
2023/07/30 02:00:07;;;;;;;12.23;3.43;;;17.40;50.50;;;;;;5057363;28;20199;-88
2023/07/30 02:02:41;;;;;;;8.47;2.93;;;17.40;47.30;;;;;;5058007;28;20210;-87
2023/07/30 02:05:06;;;;;;;8.37;3.77;;;17.50;46.10;;;;;;5058222;28;20245;-86
2023/07/30 02:07:38;;;;;;;13.20;3.53;;;17.50;47.20;;;;;;5058345;28;20204;-88
2023/07/30 02:10:07;;;;;;;12.00;3.07;;;17.40;48.60;;;;;;5057595;28;20267;-88
2023/07/30 02:12:36;;;;;;;10.03;3.80;;;17.50;46.80;;;;;;5057630;28;20280;-87
2023/07/30 02:15:02;;;;;;;10.00;3.47;;;17.40;48.40;;;;;;5058042;28;20187;-87
2023/07/30 02:17:48;;;;;;;13.73;3.53;;;17.40;46.10;;;;;;5058300;28;20275;-89
2023/07/30 02:20:14;;;;;;;9.87;3.17;;;17.40;46.30;;;;;;5075023;28;20199;-86
2023/07/30 02:22:40;;;;;;;12.77;3.80;;;17.40;50.40;;;;;;5058312;28;20213;-86
2023/07/30 02:25:06;;;;;;;13.97;3.80;;;17.40;51.30;;;;;;5057779;28;20634;-88
2023/07/30 02:27:35;;;;;;;14.93;4.00;;;17.30;50.60;;;;;;5055749;28;20223;-86
2023/07/30 02:30:04;;;;;;;11.90;3.50;;;17.30;52.70;;;;;;5058039;28;20982;-87
2023/07/30 02:32:35;;;;;;;12.87;3.93;;;17.30;52.50;;;;;;5057671;28;20233;-90
2023/07/30 02:35:03;;;;;;;15.43;3.47;;;17.30;52.60;;;;;;5057267;28;20178;-87
2023/07/30 02:37:29;;;;;;;6.80;2.60;;;17.30;53.50;;;;;;5057426;28;20262;-88
2023/07/30 02:39:55;;;;;;;9.10;3.50;;;17.30;53.50;;;;;;5057956;28;20200;-86
2023/07/30 02:42:20;;;;;;;10.67;3.47;;;17.30;50.90;;;;;;5057759;28;20203;-87
2023/07/30 02:44:50;;;;;;;10.90;3.57;;;17.40;53.00;;;;;;5057945;28;20170;-87
2023/07/30 02:47:15;;;;;;;11.27;3.33;;;17.40;49.00;;;;;;5056539;28;20214;-90
2023/07/30 02:49:41;;;;;;;14.87;4.00;;;17.50;47.60;;;;;;5057081;28;20198;-84
2023/07/30 02:52:07;;;;;;;10.13;3.00;;;17.50;46.70;;;;;;5057526;28;20264;-87
2023/07/30 02:54:32;;;;;;;13.33;3.60;;;17.40;46.90;;;;;;5058314;28;20175;-87
2023/07/30 02:56:58;;;;;;;14.60;4.00;;;17.40;43.10;;;;;;5063030;28;20221;-85
2023/07/30 02:59:24;;;;;;;10.83;3.37;;;17.40;44.00;;;;;;5067071;28;20168;-86
2023/07/30 03:01:49;;;;;;;13.73;3.30;;;17.40;45.10;;;;;;5067856;28;20184;-88
2023/07/30 03:04:15;;;;;;;11.40;3.53;;;17.30;50.70;;;;;;5067381;28;20215;-86
2023/07/30 03:06:46;;;;;;;11.10;3.23;;;17.20;55.60;;;;;;5066756;28;20182;-89
2023/07/30 03:09:12;;;;;;;9.47;3.13;;;17.20;56.40;;;;;;5076261;28;20177;-85
2023/07/30 03:11:37;;;;;;;15.90;3.57;;;17.20;56.00;;;;;;5075433;28;20188;-89
2023/07/30 03:14:03;;;;;;;9.80;3.30;;;17.20;54.80;;;;;;5099470;28;20279;-89
2023/07/30 03:16:31;;;;;;;14.87;3.30;;;17.20;55.30;;;;;;5100415;28;20232;-89
2023/07/30 03:19:04;;;;;;;14.70;3.40;;;17.20;55.10;;;;;;5086576;28;20175;-88
2023/07/30 03:21:30;;;;;;;11.97;3.30;;;17.30;53.30;;;;;;5081652;28;20187;-88
2023/07/30 03:23:55;;;;;;;14.33;3.90;;;17.30;52.80;;;;;;5078815;28;20687;-88
2023/07/30 03:26:21;;;;;;;12.33;3.60;;;17.30;55.40;;;;;;5077768;28;20235;-87
2023/07/30 03:28:47;;;;;;;11.13;3.10;;;17.20;56.60;;;;;;5077227;28;20177;-88
2023/07/30 03:31:12;;;;;;;13.10;3.67;;;17.10;60.90;;;;;;5076495;28;20168;-87
2023/07/30 03:33:43;;;;;;;13.90;3.13;;;17.10;59.50;;;;;;5076698;28;20640;-87
2023/07/30 03:36:10;;;;;;;15.10;3.63;;;17.10;60.40;;;;;;5076581;28;20170;-84
2023/07/30 03:38:36;;;;;;;15.03;3.50;;;17.10;61.00;;;;;;5076577;28;20262;-87
2023/07/30 03:41:04;;;;;;;11.63;3.20;;;17.10;58.50;;;;;;5075904;28;20203;-85
2023/07/30 03:43:30;;;;;;;10.50;3.10;;;17.20;57.60;;;;;;5074076;28;20209;-86
2023/07/30 03:45:56;;;;;;;14.03;3.60;;;17.10;59.80;;;;;;5074801;28;20186;-85
2023/07/30 03:48:21;;;;;;;15.60;3.27;;;17.20;56.80;;;;;;5075122;28;20479;-85
2023/07/30 03:50:47;;;;;;;12.67;3.17;;;17.20;58.60;;;;;;5074755;28;20178;-86
2023/07/30 03:53:13;;;;;;;12.90;3.50;;;17.10;58.80;;;;;;5074848;28;20181;-85
2023/07/30 03:55:40;;;;;;;12.20;3.97;;;17.20;55.80;;;;;;5074488;28;20630;-86
2023/07/30 03:58:05;;;;;;;11.30;3.40;;;17.10;56.30;;;;;;5074334;28;20282;-85
2023/07/30 04:00:31;;;;;;;12.73;3.80;;;17.20;55.40;;;;;;5075812;28;20698;-85
2023/07/30 04:03:00;;;;;;;12.10;3.33;;;17.20;53.10;;;;;;5076078;28;20219;-89
2023/07/30 04:05:25;;;;;;;13.33;3.60;;;17.20;55.20;;;;;;5074751;28;20697;-85
2023/07/30 04:07:51;;;;;;;11.50;3.50;;;17.10;57.70;;;;;;5075711;28;20242;-87
2023/07/30 04:10:16;;;;;;;12.83;3.40;;;17.00;58.50;;;;;;5075214;28;20171;-85
2023/07/30 04:12:42;;;;;;;10.77;3.20;;;16.90;62.30;;;;;;5075820;28;20198;-85
2023/07/30 04:15:10;;;;;;;15.53;3.33;;;16.90;62.40;;;;;;5075360;28;20179;-85
2023/07/30 04:17:39;;;;;;;11.67;2.80;;;17.10;56.70;;;;;;5074593;28;20272;-85
2023/07/30 04:20:05;;;;;;;12.50;3.13;;;16.90;58.80;;;;;;5074543;28;20238;-90
2023/07/30 04:22:34;;;;;;;13.57;3.70;;;17.00;61.30;;;;;;5091167;28;20535;-85
2023/07/30 04:25:07;;;;;;;15.57;3.20;;;16.90;63.40;;;;;;5074601;28;20180;-88
2023/07/30 04:27:33;;;;;;;14.93;3.83;;;17.00;61.70;;;;;;5074443;28;20182;-88
2023/07/30 04:30:04;;;;;;;12.63;3.60;;;17.00;58.40;;;;;;5076297;28;20170;-88
2023/07/30 04:32:30;;;;;;;15.27;3.83;;;16.90;63.90;;;;;;5075200;28;20196;-87
2023/07/30 04:34:55;;;;;;;16.03;3.50;;;16.90;64.90;;;;;;5074259;28;20595;-89
2023/07/30 04:37:21;;;;;;;15.23;3.83;;;16.90;64.90;;;;;;5075658;28;20249;-86
2023/07/30 04:39:48;;;;;;;16.17;3.77;;;17.00;63.70;;;;;;5075931;28;20638;-87
2023/07/30 04:42:15;;;;;;;11.70;3.00;;;17.00;62.40;;;;;;5092724;28;20213;-85
2023/07/30 04:44:40;;;;;;;14.97;3.50;;;16.90;60.40;;;;;;5074213;28;20182;-85
2023/07/30 04:47:07;;;;;;;14.10;3.87;;;16.90;67.60;;;;;;5074231;28;20228;-86
2023/07/30 04:49:33;;;;;;;17.83;3.97;;;16.90;66.50;;;;;;5073228;28;20174;-87
2023/07/30 04:51:58;;;;;;;14.67;3.67;;;16.90;66.00;;;;;;5075233;28;20175;-86
2023/07/30 04:54:24;;;;;;;17.10;4.30;;;16.90;66.80;;;;;;5074960;28;20176;-88
2023/07/30 04:56:49;;;;;;;13.57;3.63;;;16.90;64.20;;;;;;5093400;28;20233;-86
2023/07/30 04:59:15;;;;;;;14.57;4.53;;;16.80;70.60;;;;;;5073796;28;20554;-84
2023/07/30 05:01:41;;;;;;;14.53;3.97;;;16.80;72.50;;;;;;5075359;28;20667;-86
2023/07/30 05:04:07;;;;;;;18.73;3.90;;;16.80;71.20;;;;;;5074936;28;20294;-90
2023/07/30 05:06:32;;;;;;;15.37;4.30;;;16.80;72.00;;;;;;5074431;28;20178;-90
2023/07/30 05:08:58;;;;;;;16.37;3.90;;;16.80;74.20;;;;;;5075219;28;20590;-86
2023/07/30 05:11:24;;;;;;;15.37;3.70;;;16.80;73.50;;;;;;5073739;28;20192;-89
2023/07/30 05:13:49;;;;;;;14.03;3.60;;;16.80;75.70;;;;;;5074301;28;20524;-86
2023/07/30 05:16:15;;;;;;;17.60;4.10;;;16.70;79.80;;;;;;5078531;28;20184;-86
2023/07/30 05:18:41;;;;;;;14.27;3.67;;;16.80;75.50;;;;;;5078805;28;20178;-85
2023/07/30 05:21:06;;;;;;;13.37;3.60;;;16.90;70.80;;;;;;5078347;28;20173;-85
2023/07/30 05:23:32;;;;;;;10.97;3.63;;;16.80;75.50;;;;;;5077958;28;20286;-85
2023/07/30 05:25:57;;;;;;;14.53;3.30;;;16.80;72.30;;;;;;5076801;28;20175;-86
2023/07/30 05:28:23;;;;;;;11.53;3.30;;;16.90;72.60;;;;;;5076332;28;20172;-86
2023/07/30 05:30:49;;;;;;;13.80;3.73;;;16.90;74.00;;;;;;5078375;28;20213;-87
2023/07/30 05:33:14;;;;;;;16.93;3.87;;;16.90;73.20;;;;;;5078987;28;20215;-85
2023/07/30 05:35:40;;;;;;;12.70;3.27;;;16.90;74.00;;;;;;5077603;28;20168;-89
2023/07/30 05:38:06;;;;;;;15.40;4.10;;;16.80;73.30;;;;;;5078962;28;20186;-88
2023/07/30 05:40:31;;;;;;;15.50;3.40;;;16.90;72.40;;;;;;5077717;28;20296;-88
2023/07/30 05:42:57;;;;;;;11.73;3.33;;;16.80;75.50;;;;;;5077666;28;20662;-85
2023/07/30 05:45:22;;;;;;;16.83;3.60;;;16.80;78.70;;;;;;5078115;28;20179;-86
2023/07/30 05:47:48;;;;;;;16.00;4.20;;;16.80;80.00;;;;;;5077705;28;20177;-88
2023/07/30 05:50:13;;;;;;;15.83;3.50;;;16.80;78.10;;;;;;5078410;28;20172;-85
2023/07/30 05:52:39;;;;;;;15.57;4.20;;;16.80;77.20;;;;;;5078204;28;20171;-85
2023/07/30 05:55:05;;;;;;;16.83;3.97;;;16.90;79.40;;;;;;5076891;28;20181;-84
2023/07/30 05:57:31;;;;;;;17.83;8.63;;;16.90;75.20;;;;;;5077784;28;20191;-84
2023/07/30 05:59:57;;;;;;;13.30;3.43;;;16.90;75.40;;;;;;5078037;28;20633;-89
2023/07/30 06:02:22;;;;;;;15.57;4.00;;;16.90;73.10;;;;;;5077742;28;20211;-85
2023/07/30 06:04:48;;;;;;;12.00;3.33;;;16.90;73.60;;;;;;5077483;28;20193;-87
2023/07/30 06:07:14;;;;;;;15.07;3.87;;;17.00;74.80;;;;;;5095081;28;20643;-85
2023/07/30 06:09:39;;;;;;;11.80;3.77;;;17.10;69.60;;;;;;5078066;28;20206;-87
2023/07/30 06:12:05;;;;;;;13.90;3.57;;;17.00;68.60;;;;;;5078066;28;20288;-84
2023/07/30 06:14:31;;;;;;;14.83;3.93;;;16.90;71.40;;;;;;5077569;28;20172;-86
2023/07/30 06:16:56;;;;;;;12.57;3.97;;;17.00;75.70;;;;;;5076604;28;20639;-88
2023/07/30 06:19:22;;;;;;;17.93;4.73;;;16.90;74.40;;;;;;5077019;28;20256;-85
2023/07/30 06:21:51;;;;;;;14.47;3.80;;;17.00;71.30;;;;;;5095643;28;20250;-88
2023/07/30 06:24:16;;;;;;;13.20;3.33;;;17.10;69.50;;;;;;5077002;28;20264;-86
2023/07/30 06:26:42;;;;;;;12.47;3.57;;;17.00;70.60;;;;;;5076709;28;20610;-86
2023/07/30 06:29:07;;;;;;;11.03;3.63;;;17.10;70.50;;;;;;5077785;28;20176;-86
2023/07/30 06:31:33;;;;;;;19.07;3.67;;;17.00;73.80;;;;;;5095609;28;20305;-86
2023/07/30 06:33:59;;;;;;;13.27;4.13;;;17.20;70.80;;;;;;5077089;28;20205;-89
2023/07/30 06:36:24;;;;;;;18.03;4.33;;;17.20;67.00;;;;;;5076953;28;20213;-87
2023/07/30 06:38:50;;;;;;;14.17;4.27;;;17.20;60.70;;;;;;5077608;28;20201;-85
2023/07/30 06:41:15;;;;;;;16.07;4.40;;;17.20;61.70;;;;;;5075741;28;20191;-86
2023/07/30 06:43:41;;;;;;;14.67;4.63;;;17.20;62.90;;;;;;5076513;28;20596;-87
2023/07/30 06:46:07;;;;;;;12.53;4.13;;;17.20;62.50;;;;;;5077649;28;20182;-89
2023/07/30 06:48:32;;;;;;;15.77;4.60;;;17.20;63.70;;;;;;5077086;28;20636;-86
2023/07/30 06:50:58;;;;;;;13.30;3.93;;;17.20;61.30;;;;;;5077603;28;20230;-86
2023/07/30 06:53:24;;;;;;;18.40;4.33;;;17.20;62.10;;;;;;5077138;28;20172;-88
2023/07/30 06:55:49;;;;;;;14.30;3.83;;;17.10;66.20;;;;;;5075504;28;20585;-86
2023/07/30 06:58:15;;;;;;;15.57;3.77;;;17.20;63.50;;;;;;5076214;28;20180;-87
2023/07/30 07:00:41;;;;;;;16.67;4.20;;;17.40;56.80;;;;;;5076379;28;20235;-89
2023/07/30 07:03:06;;;;;;;14.13;4.03;;;17.50;52.50;;;;;;5076553;28;20204;-88
2023/07/30 07:05:32;;;;;;;15.20;4.37;;;17.50;39.40;;;;;;5077432;28;20573;-85
2023/07/30 07:07:57;;;;;;;16.70;3.83;;;17.70;34.70;;;;;;5076962;28;20273;-88
2023/07/30 07:10:23;;;;;;;16.83;4.40;;;17.60;33.40;;;;;;5076218;28;20178;-86
2023/07/30 07:12:49;;;;;;;13.40;3.97;;;17.80;33.00;;;;;;5076217;28;20568;-87
2023/07/30 07:15:15;;;;;;;13.67;3.77;;;17.80;30.60;;;;;;5076656;28;20179;-90
2023/07/30 07:17:41;;;;;;;15.03;4.07;;;17.90;26.60;;;;;;5076135;28;20167;-85
2023/07/30 07:20:07;;;;;;;13.53;4.13;;;18.00;17.80;;;;;;5077027;28;20175;-85
2023/07/30 07:22:33;;;;;;;13.40;4.07;;;18.10;13.60;;;;;;5076000;28;20207;-84
2023/07/30 07:24:59;;;;;;;11.40;3.63;;;18.00;12.00;;;;;;5076755;28;20176;-84
2023/07/30 07:27:25;;;;;;;11.83;3.73;;;18.20;11.60;;;;;;5076673;28;20179;-88
2023/07/30 07:29:51;;;;;;;13.53;3.70;;;18.30;3.50;;;;;;5075992;28;20199;-86
2023/07/30 07:32:18;;;;;;;13.63;3.40;;;18.50;1.00;;;;;;5074885;28;20187;-86
2023/07/30 07:34:48;;;;;;;17.27;4.17;;;18.60;1.00;;;;;;5076654;28;20229;-89
2023/07/30 07:37:18;;;;;;;11.90;3.50;;;18.60;1.00;;;;;;5075271;28;20174;-85
2023/07/30 07:39:45;;;;;;;13.63;3.70;;;18.50;1.00;;;;;;5076162;28;20667;-83
2023/07/30 07:42:11;;;;;;;12.73;3.23;;;18.50;1.00;;;;;;5075507;28;20248;-87
2023/07/30 07:44:37;;;;;;;11.87;3.10;;;18.60;1.00;;;;;;5076567;28;20179;-87
2023/07/30 07:47:03;;;;;;;13.63;3.27;;;18.50;1.00;;;;;;5075651;28;20520;-86
2023/07/30 07:49:29;;;;;;;16.00;4.10;;;18.40;1.00;;;;;;5076708;28;20179;-86
2023/07/30 07:51:55;;;;;;;10.13;3.43;;;18.30;1.00;;;;;;5075862;28;20179;-87
2023/07/30 07:54:21;;;;;;;20.90;4.17;;;18.30;1.00;;;;;;5075757;28;20650;-88
2023/07/30 07:56:46;;;;;;;14.50;3.90;;;18.40;1.00;;;;;;5076177;28;20171;-86
2023/07/30 07:59:12;;;;;;;17.07;3.40;;;18.40;1.00;;;;;;5076599;28;20175;-86
2023/07/30 08:01:38;;;;;;;16.03;4.03;;;18.50;1.00;;;;;;5093467;28;20227;-87
2023/07/30 08:04:03;;;;;;;10.90;2.90;;;18.50;1.00;;;;;;5075503;28;20310;-86
2023/07/30 08:06:31;;;;;;;13.73;4.10;;;18.50;1.00;;;;;;5075691;28;20170;-86
2023/07/30 08:08:57;;;;;;;15.07;4.27;;;18.60;1.00;;;;;;5075970;28;20179;-87
2023/07/30 08:11:22;;;;;;;9.63;3.60;;;18.70;1.00;;;;;;5075694;28;20215;-87
2023/07/30 08:13:48;;;;;;;11.10;3.50;;;18.70;1.00;;;;;;5093445;28;20608;-87
2023/07/30 08:16:15;;;;;;;11.10;3.27;;;18.60;1.00;;;;;;5074752;28;20272;-86
2023/07/30 08:18:43;;;;;;;11.07;3.37;;;18.70;1.00;;;;;;5075967;28;20487;-87
2023/07/30 08:21:09;;;;;;;13.23;3.70;;;18.80;1.00;;;;;;5074659;28;20178;-87
2023/07/30 08:23:34;;;;;;;12.70;3.47;;;18.80;1.00;;;;;;5074677;28;20210;-87
2023/07/30 08:26:02;;;;;;;13.77;3.10;;;18.80;1.00;;;;;;5093320;28;20197;-89
2023/07/30 08:28:27;;;;;;;12.23;3.47;;;18.90;1.00;;;;;;5075710;28;20640;-87
2023/07/30 08:31:02;;;;;;;13.03;3.77;;;18.90;1.00;;;;;;5074055;28;20183;-86
2023/07/30 08:33:27;;;;;;;12.10;3.27;;;18.80;1.00;;;;;;5058878;28;20278;-85
2023/07/30 08:35:58;;;;;;;14.30;4.00;;;18.90;1.00;;;;;;5067893;28;20259;-87
2023/07/30 08:38:25;;;;;;;11.33;3.83;;;18.90;1.00;;;;;;5059748;28;20609;-90
2023/07/30 08:40:51;;;;;;;8.80;3.10;;;18.90;1.00;;;;;;5065034;28;20669;-88
2023/07/30 08:43:18;;;;;;;9.83;3.00;;;19.00;1.00;;;;;;5067810;28;20220;-87
2023/07/30 08:45:44;;;;;;;14.63;3.07;;;19.00;1.00;;;;;;5057440;28;20190;-86
2023/07/30 08:48:10;;;;;;;10.60;2.83;;;19.00;1.00;;;;;;5057929;28;20310;-91
2023/07/30 08:50:37;;;;;;;9.93;3.30;;;19.10;1.00;;;;;;5059351;28;20236;-92
2023/07/30 08:53:03;;;;;;;6.97;2.50;;;19.00;1.00;;;;;;5069989;28;20195;-91
2023/07/30 08:55:29;;;;;;;9.33;3.03;;;18.90;1.00;;;;;;5062585;28;20245;-89
2023/07/30 08:57:58;;;;;;;11.60;2.87;;;18.80;1.00;;;;;;5064595;28;20208;-87
2023/07/30 09:00:25;;;;;;;12.23;3.23;;;18.80;1.00;;;;;;5067757;28;20191;-87
2023/07/30 09:02:54;;;;;;;14.47;3.20;;;18.80;1.00;;;;;;5063822;28;20217;-87
2023/07/30 09:05:20;;;;;;;14.63;3.60;;;18.80;1.00;;;;;;5070182;28;20630;-88
2023/07/30 09:07:46;;;;;;;9.57;3.10;;;18.70;1.00;;;;;;5068050;28;20195;-86
2023/07/30 09:10:13;;;;;;;10.23;2.80;;;18.60;1.00;;;;;;5065330;28;20218;-87
2023/07/30 09:12:39;;;;;;;12.00;3.20;;;18.70;1.00;;;;;;5065789;28;20207;-88
2023/07/30 09:15:06;;;;;;;12.63;3.30;;;18.70;1.00;;;;;;5059203;28;20188;-88
2023/07/30 09:17:33;;;;;;;10.73;3.07;;;18.80;1.00;;;;;;5064790;28;20189;-87
2023/07/30 09:20:00;;;;;;;7.37;1.87;;;18.80;1.00;;;;;;5063648;28;20549;-86
2023/07/30 09:22:29;;;;;;;9.10;2.87;;;18.80;1.00;;;;;;5065730;28;20188;-89
2023/07/30 09:24:56;;;;;;;8.80;2.37;;;18.80;1.00;;;;;;5054925;28;20184;-87
2023/07/30 09:27:25;;;;;;;12.20;2.87;;;18.80;1.00;;;;;;5060025;28;20180;-89
2023/07/30 09:29:55;;;;;;;12.73;2.77;;;18.90;1.00;;;;;;5084796;28;20661;-90
2023/07/30 09:32:26;;;;;;;10.37;2.50;;;18.90;1.00;;;;;;5077727;28;20205;-85
2023/07/30 09:34:52;;;;;;;8.90;2.77;;;18.90;1.00;;;;;;5062912;28;20202;-83
2023/07/30 09:37:17;;;;;;;11.23;2.80;;;18.80;1.00;;;;;;5061545;28;20656;-87
2023/07/30 09:39:43;;;;;;;10.50;2.90;;;18.80;1.00;;;;;;5066048;28;20188;-86
2023/07/30 09:42:09;;;;;;;11.37;2.93;;;18.80;1.00;;;;;;5086718;28;20715;-85
2023/07/30 09:44:38;;;;;;;10.03;3.40;;;18.90;1.00;;;;;;5067825;28;20203;-86
2023/07/30 09:47:08;;;;;;;11.57;2.70;;;18.90;1.00;;;;;;5060915;28;20266;-89
2023/07/30 09:49:34;;;;;;;10.23;2.77;;;18.80;1.00;;;;;;5064334;28;20182;-89
2023/07/30 09:52:01;;;;;;;8.63;2.93;;;18.80;1.00;;;;;;5063049;28;20255;-86
2023/07/30 09:54:27;;;;;;;9.63;2.93;;;18.60;1.00;;;;;;5053974;28;20258;-87
2023/07/30 09:56:53;;;;;;;11.10;3.30;;;18.60;1.00;;;;;;5056404;28;20176;-87
2023/07/30 09:59:18;;;;;;;10.37;2.60;;;18.50;1.00;;;;;;5051280;28;20206;-85
2023/07/30 10:01:49;;;;;;;11.17;3.00;;;18.50;6.30;;;;;;5059450;28;20200;-88
2023/07/30 10:04:17;;;;;;;8.23;2.33;;;18.20;6.20;;;;;;5063861;28;20250;-88
2023/07/30 10:07:01;;;;;;;8.60;2.50;;;18.20;18.40;;;;;;5064794;28;20225;-85
2023/07/30 10:09:33;;;;;;;7.53;2.57;;;18.20;17.30;;;;;;5067870;28;20175;-86
2023/07/30 10:12:01;;;;;;;9.17;2.83;;;18.30;8.70;;;;;;5060945;28;20197;-87
2023/07/30 10:14:28;;;;;;;8.10;2.53;;;18.40;1.00;;;;;;5062154;28;20186;-88
2023/07/30 10:16:55;;;;;;;13.17;2.70;;;18.50;1.00;;;;;;5061759;28;20183;-88
2023/07/30 10:19:28;;;;;;;9.07;2.70;;;18.70;1.00;;;;;;5071603;28;20586;-85
2023/07/30 10:22:17;;;;;;;6.30;2.53;;;18.80;1.00;;;;;;5063588;28;20194;-86
2023/07/30 10:25:03;;;;;;;7.97;2.10;;;19.00;1.00;;;;;;5063323;28;20670;-86
2023/07/30 10:27:59;;;;;;;8.73;2.20;;;19.20;1.00;;;;;;5072065;28;20253;-84
2023/07/30 10:30:31;;;;;;;6.73;2.10;;;19.50;1.00;;;;;;5062695;28;20180;-86
2023/07/30 10:33:19;;;;;;;;;;;;;;;;;;;;;
2023/07/30 10:35:46;;;;;;;8.87;2.93;;;19.90;1.00;;;;;;5083237;28;20170;-85
2023/07/30 10:38:27;;;;;;;10.10;2.60;;;20.10;1.00;;;;;;5062201;28;20180;-85
2023/07/30 10:41:11;;;;;;;10.43;2.47;;;20.20;1.00;;;;;;5063093;28;20179;-86
2023/07/30 10:44:04;;;;;;;10.33;2.73;;;20.20;1.00;;;;;;5066324;28;20211;-85
2023/07/30 10:46:30;;;;;;;10.50;2.87;;;20.20;1.00;;;;;;5065534;28;20192;-86
2023/07/30 10:48:55;;;;;;;11.87;2.33;;;19.90;1.00;;;;;;5061546;28;20180;-87
2023/07/30 10:51:22;;;;;;;9.47;2.43;;;19.60;1.00;;;;;;5069819;28;20179;-85
2023/07/30 10:53:50;;;;;;;7.37;2.70;;;19.50;1.00;;;;;;5067622;28;20618;-86
2023/07/30 10:56:17;;;;;;;5.93;1.80;;;19.50;1.00;;;;;;5065574;28;20188;-86
2023/07/30 10:58:48;;;;;;;7.77;2.30;;;19.60;1.00;;;;;;5066599;28;20221;-85
2023/07/30 11:01:26;;;;;;;9.83;2.87;;;19.70;1.00;;;;;;5058087;28;20191;-87
2023/07/30 11:03:52;;;;;;;7.20;2.00;;;19.80;1.00;;;;;;5067117;28;20623;-86
2023/07/30 11:06:26;;;;;;;10.20;2.33;;;19.90;1.00;;;;;;5069646;28;20190;-87
2023/07/30 11:08:53;;;;;;;9.43;1.90;;;19.90;1.00;;;;;;5062084;28;20270;-84
2023/07/30 11:11:18;;;;;;;8.40;2.00;;;20.10;1.00;;;;;;5068472;28;20201;-87
2023/07/30 11:13:46;;;;;;;9.30;2.10;;;20.50;1.00;;;;;;5064787;28;20181;-86
2023/07/30 11:16:13;;;;;;;6.60;2.50;;;20.60;1.00;;;;;;5064369;28;20238;-87
2023/07/30 11:18:41;;;;;;;6.53;2.37;;;20.80;1.00;;;;;;5076305;28;20180;-86
2023/07/30 11:21:08;;;;;;;5.67;1.93;;;20.70;99.90;;;;;;5055349;28;20176;-86
2023/07/30 11:23:36;;;;;;;6.10;1.67;;;20.80;99.90;;;;;;5084044;28;20197;-86
2023/07/30 11:26:03;;;;;;;6.53;1.97;;;21.00;99.90;;;;;;5061433;28;20204;-86
2023/07/30 11:28:37;;;;;;;5.57;1.97;;;21.10;99.90;;;;;;5067448;28;20192;-87
2023/07/30 11:31:15;;;;;;;6.67;1.60;;;21.00;99.90;;;;;;5065423;28;20194;-85
2023/07/30 11:33:42;;;;;;;4.73;1.77;;;21.20;99.90;;;;;;5063874;28;20202;-86
2023/07/30 11:36:14;;;;;;;4.40;1.57;;;21.50;99.90;;;;;;5054042;28;20186;-86
2023/07/30 11:38:41;;;;;;;4.37;1.60;;;21.50;62.40;;;;;;5067488;28;20188;-85
2023/07/30 11:41:09;;;;;;;5.13;1.40;;;21.50;1.00;;;;;;5058130;28;20218;-86
2023/07/30 11:43:41;;;;;;;5.33;1.30;;;21.50;1.00;;;;;;5061633;28;20224;-87
2023/07/30 11:46:14;;;;;;;7.17;1.90;;;21.70;1.00;;;;;;5064117;28;20177;-87
2023/07/30 11:48:45;;;;;;;7.97;2.00;;;21.80;1.00;;;;;;5065175;28;20202;-85
2023/07/30 11:51:28;;;;;;;4.23;1.30;;;21.70;99.90;;;;;;5064265;28;20221;-86
2023/07/30 11:53:57;;;;;;;5.30;1.70;;;21.60;99.90;;;;;;5067212;28;20171;-85
2023/07/30 11:56:31;;;;;;;3.87;1.60;;;21.80;1.00;;;;;;5079586;28;20276;-86
2023/07/30 11:59:03;;;;;;;4.57;1.30;;;21.90;99.90;;;;;;5052265;28;20273;-84
2023/07/30 12:01:30;;;;;;;5.97;1.63;;;22.00;99.90;;;;;;5071906;28;20177;-87
2023/07/30 12:03:57;;;;;;;4.57;1.60;;;21.90;14.20;;;;;;5071010;28;20714;-86
2023/07/30 12:06:23;;;;;;;6.07;1.60;;;21.80;99.90;;;;;;5052760;28;20174;-85
2023/07/30 12:08:50;;;;;;;5.97;1.70;;;21.70;99.90;;;;;;5083436;28;20166;-84
2023/07/30 12:11:21;;;;;;;5.70;1.53;;;21.80;99.90;;;;;;5070814;28;20714;-84
2023/07/30 12:13:47;;;;;;;6.67;1.50;;;21.90;99.90;;;;;;5055375;28;20277;-83
2023/07/30 12:16:13;;;;;;;6.57;1.63;;;21.90;99.90;;;;;;5059870;28;20270;-83
2023/07/30 12:18:40;;;;;;;3.83;1.60;;;21.80;99.90;;;;;;5070982;28;20182;-84
2023/07/30 12:21:07;;;;;;;7.30;2.07;;;21.90;1.00;;;;;;5065354;28;20181;-86
2023/07/30 12:23:34;;;;;;;3.80;1.60;;;21.90;1.00;;;;;;5068335;28;20262;-85
2023/07/30 12:26:04;;;;;;;5.77;1.97;;;21.90;1.00;;;;;;5055163;28;20191;-84
2023/07/30 12:28:34;;;;;;;5.67;1.97;;;22.00;1.00;;;;;;5085194;28;20354;-87
2023/07/30 12:31:02;;;;;;;6.40;1.40;;;22.10;1.00;;;;;;5060512;28;20206;-86
2023/07/30 12:33:28;;;;;;;7.30;1.90;;;22.00;1.00;;;;;;5065694;28;20558;-87
2023/07/30 12:35:54;;;;;;;4.83;1.43;;;22.10;1.00;;;;;;5055496;28;20183;-86
2023/07/30 12:38:19;;;;;;;6.37;1.90;;;22.00;99.90;;;;;;5056074;28;20180;-86
2023/07/30 12:40:45;;;;;;;4.57;1.80;;;22.00;1.00;;;;;;5054926;28;20228;-87
2023/07/30 12:43:11;;;;;;;7.73;2.07;;;22.10;1.00;;;;;;5061655;28;20290;-88
2023/07/30 12:45:37;;;;;;;7.07;1.63;;;22.10;99.90;;;;;;5060395;28;20184;-83
2023/07/30 12:48:03;;;;;;;5.07;1.47;;;22.10;1.00;;;;;;5060470;28;20248;-87